sensor_id;sensor_type;location;lat;lon;timestamp;temperature;humidity
10472;DHT22;5283;48.876;8.962;2023-12-14T00:01:43;5.60;99.90
10472;DHT22;5283;48.876;8.962;2023-12-14T00:04:09;5.60;99.90
10472;DHT22;5283;48.876;8.962;2023-12-14T00:06:36;5.60;99.90
10472;DHT22;5283;48.876;8.962;2023-12-14T00:09:03;5.70;99.90
10472;DHT22;5283;48.876;8.962;2023-12-14T00:11:30;5.70;99.90
10472;DHT22;5283;48.876;8.962;2023-12-14T00:13:56;5.70;99.90
10472;DHT22;5283;48.876;8.962;2023-12-14T00:16:23;5.70;99.90
10472;DHT22;5283;48.876;8.962;2023-12-14T00:18:50;5.70;99.90
10472;DHT22;5283;48.876;8.962;2023-12-14T00:21:16;5.70;99.90
10472;DHT22;5283;48.876;8.962;2023-12-14T00:23:43;5.70;99.90
10472;DHT22;5283;48.876;8.962;2023-12-14T00:26:10;5.70;99.90
10472;DHT22;5283;48.876;8.962;2023-12-14T00:28:37;5.70;99.90
10472;DHT22;5283;48.876;8.962;2023-12-14T00:31:03;5.70;99.90
10472;DHT22;5283;48.876;8.962;2023-12-14T00:33:30;5.70;99.90
10472;DHT22;5283;48.876;8.962;2023-12-14T00:35:57;5.70;99.90
10472;DHT22;5283;48.876;8.962;2023-12-14T00:38:24;5.70;99.90
10472;DHT22;5283;48.876;8.962;2023-12-14T00:40:50;5.70;99.90
10472;DHT22;5283;48.876;8.962;2023-12-14T00:43:17;5.70;99.90
10472;DHT22;5283;48.876;8.962;2023-12-14T00:45:44;5.70;99.90
10472;DHT22;5283;48.876;8.962;2023-12-14T00:48:10;5.70;99.90
10472;DHT22;5283;48.876;8.962;2023-12-14T00:50:37;5.70;99.90
10472;DHT22;5283;48.876;8.962;2023-12-14T00:53:04;5.70;99.90
10472;DHT22;5283;48.876;8.962;2023-12-14T00:55:31;5.70;99.90
10472;DHT22;5283;48.876;8.962;2023-12-14T00:57:57;5.70;99.90
10472;DHT22;5283;48.876;8.962;2023-12-14T01:00:24;5.70;99.90
10472;DHT22;5283;48.876;8.962;2023-12-14T01:02:51;5.70;99.90
10472;DHT22;5283;48.876;8.962;2023-12-14T01:05:18;5.70;99.90
10472;DHT22;5283;48.876;8.962;2023-12-14T01:07:44;5.70;99.90
10472;DHT22;5283;48.876;8.962;2023-12-14T01:10:11;5.60;99.90
10472;DHT22;5283;48.876;8.962;2023-12-14T01:12:38;5.60;99.90
10472;DHT22;5283;48.876;8.962;2023-12-14T01:15:05;5.60;99.90
10472;DHT22;5283;48.876;8.962;2023-12-14T01:17:32;5.60;99.90
10472;DHT22;5283;48.876;8.962;2023-12-14T01:20:06;5.60;99.90
10472;DHT22;5283;48.876;8.962;2023-12-14T01:22:33;5.60;99.90
10472;DHT22;5283;48.876;8.962;2023-12-14T01:25:00;5.60;99.90
10472;DHT22;5283;48.876;8.962;2023-12-14T01:27:27;5.60;99.90
10472;DHT22;5283;48.876;8.962;2023-12-14T01:29:54;5.50;99.90
10472;DHT22;5283;48.876;8.962;2023-12-14T01:32:21;5.50;99.90
10472;DHT22;5283;48.876;8.962;2023-12-14T01:34:48;5.50;99.90
10472;DHT22;5283;48.876;8.962;2023-12-14T01:37:14;5.50;99.90
10472;DHT22;5283;48.876;8.962;2023-12-14T01:39:41;5.40;99.90
10472;DHT22;5283;48.876;8.962;2023-12-14T01:42:08;5.50;99.90
10472;DHT22;5283;48.876;8.962;2023-12-14T01:44:34;5.50;99.90
10472;DHT22;5283;48.876;8.962;2023-12-14T01:47:01;5.50;99.90
10472;DHT22;5283;48.876;8.962;2023-12-14T01:49:29;5.60;99.90
10472;DHT22;5283;48.876;8.962;2023-12-14T01:51:55;5.60;99.90
10472;DHT22;5283;48.876;8.962;2023-12-14T01:54:22;5.50;99.90
10472;DHT22;5283;48.876;8.962;2023-12-14T01:56:49;5.50;99.90
10472;DHT22;5283;48.876;8.962;2023-12-14T01:59:16;5.50;99.90
10472;DHT22;5283;48.876;8.962;2023-12-14T02:01:47;5.30;99.90
10472;DHT22;5283;48.876;8.962;2023-12-14T02:04:18;5.20;99.90
10472;DHT22;5283;48.876;8.962;2023-12-14T02:06:45;5.10;99.90
10472;DHT22;5283;48.876;8.962;2023-12-14T02:09:11;5.00;99.90
10472;DHT22;5283;48.876;8.962;2023-12-14T02:11:38;5.10;99.90
10472;DHT22;5283;48.876;8.962;2023-12-14T02:14:06;5.10;99.90
10472;DHT22;5283;48.876;8.962;2023-12-14T02:16:35;5.10;99.90
10472;DHT22;5283;48.876;8.962;2023-12-14T02:19:02;5.20;99.90
10472;DHT22;5283;48.876;8.962;2023-12-14T02:21:28;5.10;99.90
10472;DHT22;5283;48.876;8.962;2023-12-14T02:23:55;5.10;99.90
10472;DHT22;5283;48.876;8.962;2023-12-14T02:26:22;5.10;99.90
10472;DHT22;5283;48.876;8.962;2023-12-14T02:28:48;5.20;99.90
10472;DHT22;5283;48.876;8.962;2023-12-14T02:31:15;5.20;99.90
10472;DHT22;5283;48.876;8.962;2023-12-14T02:33:42;5.20;99.90
10472;DHT22;5283;48.876;8.962;2023-12-14T02:36:09;5.20;99.90
10472;DHT22;5283;48.876;8.962;2023-12-14T02:38:36;5.20;99.90
10472;DHT22;5283;48.876;8.962;2023-12-14T02:41:03;5.20;99.90
10472;DHT22;5283;48.876;8.962;2023-12-14T02:43:29;5.20;99.90
10472;DHT22;5283;48.876;8.962;2023-12-14T02:45:56;5.10;99.90
10472;DHT22;5283;48.876;8.962;2023-12-14T02:48:28;5.10;99.90
10472;DHT22;5283;48.876;8.962;2023-12-14T02:50:56;5.20;99.90
10472;DHT22;5283;48.876;8.962;2023-12-14T02:53:22;5.20;99.90
10472;DHT22;5283;48.876;8.962;2023-12-14T02:55:49;5.30;99.90
10472;DHT22;5283;48.876;8.962;2023-12-14T02:58:16;5.20;99.90
10472;DHT22;5283;48.876;8.962;2023-12-14T03:00:42;5.20;99.90
10472;DHT22;5283;48.876;8.962;2023-12-14T03:03:09;5.30;99.90
10472;DHT22;5283;48.876;8.962;2023-12-14T03:05:36;5.40;99.90
10472;DHT22;5283;48.876;8.962;2023-12-14T03:08:02;5.60;99.90
10472;DHT22;5283;48.876;8.962;2023-12-14T03:10:29;5.60;99.90
10472;DHT22;5283;48.876;8.962;2023-12-14T03:12:56;5.70;99.90
10472;DHT22;5283;48.876;8.962;2023-12-14T03:15:22;5.70;99.90
10472;DHT22;5283;48.876;8.962;2023-12-14T03:17:49;5.60;99.90
10472;DHT22;5283;48.876;8.962;2023-12-14T03:20:16;5.70;99.90
10472;DHT22;5283;48.876;8.962;2023-12-14T03:22:42;5.60;99.90
10472;DHT22;5283;48.876;8.962;2023-12-14T03:25:09;5.70;99.90
10472;DHT22;5283;48.876;8.962;2023-12-14T03:27:41;5.60;99.90
10472;DHT22;5283;48.876;8.962;2023-12-14T03:30:08;5.70;99.90
10472;DHT22;5283;48.876;8.962;2023-12-14T03:32:37;5.70;99.90
10472;DHT22;5283;48.876;8.962;2023-12-14T03:35:04;5.70;99.90
10472;DHT22;5283;48.876;8.962;2023-12-14T03:37:31;5.80;99.90
10472;DHT22;5283;48.876;8.962;2023-12-14T03:39:58;5.80;99.90
10472;DHT22;5283;48.876;8.962;2023-12-14T03:42:24;5.80;99.90
10472;DHT22;5283;48.876;8.962;2023-12-14T03:44:51;5.70;99.90
10472;DHT22;5283;48.876;8.962;2023-12-14T03:47:18;5.70;99.90
10472;DHT22;5283;48.876;8.962;2023-12-14T03:49:45;5.70;99.90
10472;DHT22;5283;48.876;8.962;2023-12-14T03:52:11;5.70;99.90
10472;DHT22;5283;48.876;8.962;2023-12-14T03:54:38;5.80;99.90
10472;DHT22;5283;48.876;8.962;2023-12-14T03:57:05;5.70;99.90
10472;DHT22;5283;48.876;8.962;2023-12-14T03:59:31;5.80;99.90
10472;DHT22;5283;48.876;8.962;2023-12-14T04:01:59;5.70;99.90
10472;DHT22;5283;48.876;8.962;2023-12-14T04:04:25;5.80;99.90
10472;DHT22;5283;48.876;8.962;2023-12-14T04:06:52;5.80;99.90
10472;DHT22;5283;48.876;8.962;2023-12-14T04:09:19;5.80;99.90
10472;DHT22;5283;48.876;8.962;2023-12-14T04:11:46;5.80;99.90
10472;DHT22;5283;48.876;8.962;2023-12-14T04:14:12;5.80;99.90
10472;DHT22;5283;48.876;8.962;2023-12-14T04:16:39;5.80;99.90
10472;DHT22;5283;48.876;8.962;2023-12-14T04:19:06;5.80;99.90
10472;DHT22;5283;48.876;8.962;2023-12-14T04:21:36;5.90;99.90
10472;DHT22;5283;48.876;8.962;2023-12-14T04:24:03;5.90;99.90
10472;DHT22;5283;48.876;8.962;2023-12-14T04:26:30;5.90;99.90
10472;DHT22;5283;48.876;8.962;2023-12-14T04:28:57;5.90;99.90
10472;DHT22;5283;48.876;8.962;2023-12-14T04:31:23;6.00;99.90
10472;DHT22;5283;48.876;8.962;2023-12-14T04:33:50;6.00;99.90
10472;DHT22;5283;48.876;8.962;2023-12-14T04:36:17;6.00;99.90
10472;DHT22;5283;48.876;8.962;2023-12-14T04:38:43;6.00;99.90
10472;DHT22;5283;48.876;8.962;2023-12-14T04:41:13;6.00;99.90
10472;DHT22;5283;48.876;8.962;2023-12-14T04:43:39;6.00;99.90
10472;DHT22;5283;48.876;8.962;2023-12-14T04:46:06;6.00;99.90
10472;DHT22;5283;48.876;8.962;2023-12-14T04:48:33;6.00;99.90
10472;DHT22;5283;48.876;8.962;2023-12-14T04:51:00;6.00;99.90
10472;DHT22;5283;48.876;8.962;2023-12-14T04:53:26;6.00;99.90
10472;DHT22;5283;48.876;8.962;2023-12-14T04:55:53;6.00;99.90
10472;DHT22;5283;48.876;8.962;2023-12-14T04:58:20;6.10;99.90
10472;DHT22;5283;48.876;8.962;2023-12-14T05:00:47;6.00;99.90
10472;DHT22;5283;48.876;8.962;2023-12-14T05:03:14;6.10;99.90
10472;DHT22;5283;48.876;8.962;2023-12-14T05:05:40;6.10;99.90
10472;DHT22;5283;48.876;8.962;2023-12-14T05:08:07;6.10;99.90
10472;DHT22;5283;48.876;8.962;2023-12-14T05:10:34;6.10;99.90
10472;DHT22;5283;48.876;8.962;2023-12-14T05:13:01;6.10;99.90
10472;DHT22;5283;48.876;8.962;2023-12-14T05:15:28;6.10;99.90
10472;DHT22;5283;48.876;8.962;2023-12-14T05:17:55;6.10;99.90
10472;DHT22;5283;48.876;8.962;2023-12-14T05:20:21;6.10;99.90
10472;DHT22;5283;48.876;8.962;2023-12-14T05:22:48;6.10;99.90
10472;DHT22;5283;48.876;8.962;2023-12-14T05:25:14;6.10;99.90
10472;DHT22;5283;48.876;8.962;2023-12-14T05:27:41;6.10;99.90
10472;DHT22;5283;48.876;8.962;2023-12-14T05:30:09;6.10;99.90
10472;DHT22;5283;48.876;8.962;2023-12-14T05:32:35;6.10;99.90
10472;DHT22;5283;48.876;8.962;2023-12-14T05:35:02;6.10;99.90
10472;DHT22;5283;48.876;8.962;2023-12-14T05:37:29;6.10;99.90
10472;DHT22;5283;48.876;8.962;2023-12-14T05:39:55;6.10;99.90
10472;DHT22;5283;48.876;8.962;2023-12-14T05:42:22;6.10;99.90
10472;DHT22;5283;48.876;8.962;2023-12-14T05:44:49;6.10;99.90
10472;DHT22;5283;48.876;8.962;2023-12-14T05:47:15;6.20;99.90
10472;DHT22;5283;48.876;8.962;2023-12-14T05:49:43;6.20;99.90
10472;DHT22;5283;48.876;8.962;2023-12-14T05:52:10;6.10;99.90
10472;DHT22;5283;48.876;8.962;2023-12-14T05:54:38;6.10;99.90
10472;DHT22;5283;48.876;8.962;2023-12-14T05:57:04;6.00;99.90
10472;DHT22;5283;48.876;8.962;2023-12-14T05:59:31;6.00;99.90
10472;DHT22;5283;48.876;8.962;2023-12-14T06:01:59;6.00;99.90
10472;DHT22;5283;48.876;8.962;2023-12-14T06:04:27;5.90;99.90
10472;DHT22;5283;48.876;8.962;2023-12-14T06:06:54;5.90;99.90
10472;DHT22;5283;48.876;8.962;2023-12-14T06:09:21;5.90;99.90
10472;DHT22;5283;48.876;8.962;2023-12-14T06:11:51;5.90;99.90
10472;DHT22;5283;48.876;8.962;2023-12-14T06:14:18;5.90;99.90
10472;DHT22;5283;48.876;8.962;2023-12-14T06:16:46;5.90;99.90
10472;DHT22;5283;48.876;8.962;2023-12-14T06:19:13;5.90;99.90
10472;DHT22;5283;48.876;8.962;2023-12-14T06:21:40;5.90;99.90
10472;DHT22;5283;48.876;8.962;2023-12-14T06:24:07;6.00;99.90
10472;DHT22;5283;48.876;8.962;2023-12-14T06:26:34;6.00;99.90
10472;DHT22;5283;48.876;8.962;2023-12-14T06:29:00;6.00;99.90
10472;DHT22;5283;48.876;8.962;2023-12-14T06:31:27;6.00;99.90
10472;DHT22;5283;48.876;8.962;2023-12-14T06:33:54;6.00;99.90
10472;DHT22;5283;48.876;8.962;2023-12-14T06:36:22;6.10;99.90
10472;DHT22;5283;48.876;8.962;2023-12-14T06:38:53;6.00;99.90
10472;DHT22;5283;48.876;8.962;2023-12-14T06:41:21;6.10;99.90
10472;DHT22;5283;48.876;8.962;2023-12-14T06:43:49;6.10;99.90
10472;DHT22;5283;48.876;8.962;2023-12-14T06:46:16;6.20;99.90
10472;DHT22;5283;48.876;8.962;2023-12-14T06:48:43;6.20;99.90
10472;DHT22;5283;48.876;8.962;2023-12-14T06:51:09;6.20;99.90
10472;DHT22;5283;48.876;8.962;2023-12-14T06:53:38;6.20;99.90
10472;DHT22;5283;48.876;8.962;2023-12-14T06:56:06;6.20;99.90
10472;DHT22;5283;48.876;8.962;2023-12-14T06:58:37;6.20;99.90
10472;DHT22;5283;48.876;8.962;2023-12-14T07:01:03;6.30;99.90
10472;DHT22;5283;48.876;8.962;2023-12-14T07:03:31;6.20;99.90
10472;DHT22;5283;48.876;8.962;2023-12-14T07:05:58;6.20;99.90
10472;DHT22;5283;48.876;8.962;2023-12-14T07:08:25;6.30;99.90
10472;DHT22;5283;48.876;8.962;2023-12-14T07:10:51;6.20;99.90
10472;DHT22;5283;48.876;8.962;2023-12-14T07:13:18;6.20;99.90
10472;DHT22;5283;48.876;8.962;2023-12-14T07:15:45;6.20;99.90
10472;DHT22;5283;48.876;8.962;2023-12-14T07:18:12;6.30;99.90
10472;DHT22;5283;48.876;8.962;2023-12-14T07:20:39;6.30;99.90
10472;DHT22;5283;48.876;8.962;2023-12-14T07:23:05;6.30;99.90
10472;DHT22;5283;48.876;8.962;2023-12-14T07:25:32;6.30;99.90
10472;DHT22;5283;48.876;8.962;2023-12-14T07:27:58;6.30;99.90
10472;DHT22;5283;48.876;8.962;2023-12-14T07:30:27;6.30;99.90
10472;DHT22;5283;48.876;8.962;2023-12-14T07:32:54;6.30;99.90
10472;DHT22;5283;48.876;8.962;2023-12-14T07:35:20;6.30;99.90
10472;DHT22;5283;48.876;8.962;2023-12-14T07:37:47;6.30;99.90
10472;DHT22;5283;48.876;8.962;2023-12-14T07:40:14;6.30;99.90
10472;DHT22;5283;48.876;8.962;2023-12-14T07:42:40;6.40;99.90
10472;DHT22;5283;48.876;8.962;2023-12-14T07:45:08;6.40;99.90
10472;DHT22;5283;48.876;8.962;2023-12-14T07:47:36;6.40;99.90
10472;DHT22;5283;48.876;8.962;2023-12-14T07:50:04;6.50;99.90
10472;DHT22;5283;48.876;8.962;2023-12-14T07:52:30;6.50;99.90
10472;DHT22;5283;48.876;8.962;2023-12-14T07:54:57;6.50;99.90
10472;DHT22;5283;48.876;8.962;2023-12-14T07:57:24;6.50;99.90
10472;DHT22;5283;48.876;8.962;2023-12-14T07:59:50;6.50;99.90
10472;DHT22;5283;48.876;8.962;2023-12-14T08:02:17;6.50;99.90
10472;DHT22;5283;48.876;8.962;2023-12-14T08:04:44;6.60;99.90
10472;DHT22;5283;48.876;8.962;2023-12-14T08:07:10;6.70;99.90
10472;DHT22;5283;48.876;8.962;2023-12-14T08:09:37;6.90;99.90
10472;DHT22;5283;48.876;8.962;2023-12-14T08:12:04;7.10;99.90
10472;DHT22;5283;48.876;8.962;2023-12-14T08:14:34;7.30;99.90
10472;DHT22;5283;48.876;8.962;2023-12-14T08:17:01;7.40;99.90
10472;DHT22;5283;48.876;8.962;2023-12-14T08:19:28;7.50;99.90
10472;DHT22;5283;48.876;8.962;2023-12-14T08:21:55;7.60;99.90
10472;DHT22;5283;48.876;8.962;2023-12-14T08:24:22;7.70;99.90
10472;DHT22;5283;48.876;8.962;2023-12-14T08:26:49;7.70;99.90
10472;DHT22;5283;48.876;8.962;2023-12-14T08:29:15;7.90;99.90
10472;DHT22;5283;48.876;8.962;2023-12-14T08:31:42;7.90;99.90
10472;DHT22;5283;48.876;8.962;2023-12-14T08:34:09;7.80;99.90
10472;DHT22;5283;48.876;8.962;2023-12-14T08:36:40;7.70;99.90
10472;DHT22;5283;48.876;8.962;2023-12-14T08:39:07;7.50;99.90
10472;DHT22;5283;48.876;8.962;2023-12-14T08:41:34;7.40;99.90
10472;DHT22;5283;48.876;8.962;2023-12-14T08:44:01;7.30;99.90
10472;DHT22;5283;48.876;8.962;2023-12-14T08:46:27;7.30;99.90
10472;DHT22;5283;48.876;8.962;2023-12-14T08:48:54;7.40;99.90
10472;DHT22;5283;48.876;8.962;2023-12-14T08:51:21;7.40;99.90
10472;DHT22;5283;48.876;8.962;2023-12-14T08:53:48;7.40;99.90
10472;DHT22;5283;48.876;8.962;2023-12-14T08:56:14;7.40;99.90
10472;DHT22;5283;48.876;8.962;2023-12-14T08:58:41;7.40;99.90
10472;DHT22;5283;48.876;8.962;2023-12-14T09:01:07;7.40;99.90
10472;DHT22;5283;48.876;8.962;2023-12-14T09:03:34;7.50;99.90
10472;DHT22;5283;48.876;8.962;2023-12-14T09:06:01;7.40;99.90
10472;DHT22;5283;48.876;8.962;2023-12-14T09:08:31;7.50;99.90
10472;DHT22;5283;48.876;8.962;2023-12-14T09:10:58;7.50;99.90
10472;DHT22;5283;48.876;8.962;2023-12-14T09:13:24;7.60;99.90
10472;DHT22;5283;48.876;8.962;2023-12-14T09:15:51;7.60;99.90
10472;DHT22;5283;48.876;8.962;2023-12-14T09:18:20;7.70;99.90
10472;DHT22;5283;48.876;8.962;2023-12-14T09:20:49;7.70;99.90
10472;DHT22;5283;48.876;8.962;2023-12-14T09:23:19;7.70;99.90
10472;DHT22;5283;48.876;8.962;2023-12-14T09:25:45;7.70;99.90
10472;DHT22;5283;48.876;8.962;2023-12-14T09:28:12;7.70;99.90
10472;DHT22;5283;48.876;8.962;2023-12-14T09:30:39;7.80;99.90
10472;DHT22;5283;48.876;8.962;2023-12-14T09:33:05;7.80;99.90
10472;DHT22;5283;48.876;8.962;2023-12-14T09:35:35;7.80;99.90
10472;DHT22;5283;48.876;8.962;2023-12-14T09:38:03;7.70;99.90
10472;DHT22;5283;48.876;8.962;2023-12-14T09:40:30;7.70;99.90
10472;DHT22;5283;48.876;8.962;2023-12-14T09:42:57;7.70;99.90
10472;DHT22;5283;48.876;8.962;2023-12-14T09:45:28;7.80;99.90
10472;DHT22;5283;48.876;8.962;2023-12-14T09:47:59;7.90;99.90
10472;DHT22;5283;48.876;8.962;2023-12-14T09:50:26;8.00;99.90
10472;DHT22;5283;48.876;8.962;2023-12-14T09:52:53;8.10;99.90
10472;DHT22;5283;48.876;8.962;2023-12-14T09:55:20;8.10;99.90
10472;DHT22;5283;48.876;8.962;2023-12-14T09:57:46;8.20;99.90
10472;DHT22;5283;48.876;8.962;2023-12-14T10:00:41;8.30;99.90
10472;DHT22;5283;48.876;8.962;2023-12-14T10:05:49;8.50;99.90
10472;DHT22;5283;48.876;8.962;2023-12-14T10:08:16;8.50;99.90
10472;DHT22;5283;48.876;8.962;2023-12-14T10:10:48;8.50;99.90
10472;DHT22;5283;48.876;8.962;2023-12-14T10:13:15;8.50;99.90
10472;DHT22;5283;48.876;8.962;2023-12-14T10:15:44;8.50;99.90
10472;DHT22;5283;48.876;8.962;2023-12-14T10:18:10;8.50;99.90
10472;DHT22;5283;48.876;8.962;2023-12-14T10:20:37;8.60;99.90
10472;DHT22;5283;48.876;8.962;2023-12-14T10:23:05;8.60;99.90
10472;DHT22;5283;48.876;8.962;2023-12-14T10:25:32;8.60;99.90
10472;DHT22;5283;48.876;8.962;2023-12-14T10:27:59;8.60;99.90
10472;DHT22;5283;48.876;8.962;2023-12-14T10:30:30;8.50;99.90
10472;DHT22;5283;48.876;8.962;2023-12-14T10:32:58;8.50;99.90
10472;DHT22;5283;48.876;8.962;2023-12-14T10:35:24;8.50;99.90
10472;DHT22;5283;48.876;8.962;2023-12-14T10:37:52;8.40;99.90
10472;DHT22;5283;48.876;8.962;2023-12-14T10:40:18;8.50;99.90
10472;DHT22;5283;48.876;8.962;2023-12-14T10:42:47;8.60;99.90
10472;DHT22;5283;48.876;8.962;2023-12-14T10:45:16;8.70;99.90
10472;DHT22;5283;48.876;8.962;2023-12-14T10:47:47;8.60;99.90
10472;DHT22;5283;48.876;8.962;2023-12-14T10:50:14;8.50;99.90
10472;DHT22;5283;48.876;8.962;2023-12-14T10:52:41;8.50;99.90
10472;DHT22;5283;48.876;8.962;2023-12-14T10:55:20;8.60;99.90
10472;DHT22;5283;48.876;8.962;2023-12-14T10:57:47;8.60;99.90
10472;DHT22;5283;48.876;8.962;2023-12-14T11:00:16;8.70;99.90
10472;DHT22;5283;48.876;8.962;2023-12-14T11:02:46;8.70;99.90
10472;DHT22;5283;48.876;8.962;2023-12-14T11:05:14;8.80;99.90
10472;DHT22;5283;48.876;8.962;2023-12-14T11:07:47;8.60;99.90
10472;DHT22;5283;48.876;8.962;2023-12-14T11:10:15;8.40;99.90
10472;DHT22;5283;48.876;8.962;2023-12-14T11:13:06;8.40;99.90
10472;DHT22;5283;48.876;8.962;2023-12-14T11:15:38;8.30;99.90
10472;DHT22;5283;48.876;8.962;2023-12-14T11:23:15;7.80;99.90
10472;DHT22;5283;48.876;8.962;2023-12-14T11:25:50;7.80;99.90
10472;DHT22;5283;48.876;8.962;2023-12-14T11:28:20;7.90;99.90
10472;DHT22;5283;48.876;8.962;2023-12-14T11:30:47;7.90;99.90
10472;DHT22;5283;48.876;8.962;2023-12-14T11:33:14;8.20;99.90
10472;DHT22;5283;48.876;8.962;2023-12-14T11:35:42;8.40;99.90
10472;DHT22;5283;48.876;8.962;2023-12-14T11:38:09;8.40;99.90
10472;DHT22;5283;48.876;8.962;2023-12-14T11:40:40;8.40;99.90
10472;DHT22;5283;48.876;8.962;2023-12-14T11:43:08;8.30;99.90
10472;DHT22;5283;48.876;8.962;2023-12-14T11:45:37;8.20;99.90
10472;DHT22;5283;48.876;8.962;2023-12-14T11:48:07;8.20;99.90
10472;DHT22;5283;48.876;8.962;2023-12-14T11:50:35;8.20;99.90
10472;DHT22;5283;48.876;8.962;2023-12-14T11:53:02;8.20;99.90
10472;DHT22;5283;48.876;8.962;2023-12-14T11:55:31;8.20;99.90
10472;DHT22;5283;48.876;8.962;2023-12-14T11:57:58;8.40;99.90
10472;DHT22;5283;48.876;8.962;2023-12-14T12:00:27;8.40;99.90
10472;DHT22;5283;48.876;8.962;2023-12-14T12:03:11;8.30;99.90
10472;DHT22;5283;48.876;8.962;2023-12-14T12:05:44;8.30;99.90
10472;DHT22;5283;48.876;8.962;2023-12-14T12:08:14;8.30;99.90
10472;DHT22;5283;48.876;8.962;2023-12-14T12:10:42;8.30;99.90
10472;DHT22;5283;48.876;8.962;2023-12-14T12:13:16;8.30;99.90
10472;DHT22;5283;48.876;8.962;2023-12-14T12:15:43;8.40;99.90
10472;DHT22;5283;48.876;8.962;2023-12-14T12:18:14;8.40;99.90
10472;DHT22;5283;48.876;8.962;2023-12-14T12:20:41;8.20;99.90
10472;DHT22;5283;48.876;8.962;2023-12-14T12:23:08;8.20;99.90
10472;DHT22;5283;48.876;8.962;2023-12-14T12:25:35;8.10;99.90
10472;DHT22;5283;48.876;8.962;2023-12-14T12:28:03;8.10;99.90
10472;DHT22;5283;48.876;8.962;2023-12-14T12:30:33;8.00;99.90
10472;DHT22;5283;48.876;8.962;2023-12-14T12:33:00;7.90;99.90
10472;DHT22;5283;48.876;8.962;2023-12-14T12:35:27;7.70;99.90
10472;DHT22;5283;48.876;8.962;2023-12-14T12:37:56;7.70;99.90
10472;DHT22;5283;48.876;8.962;2023-12-14T12:40:24;7.60;99.90
10472;DHT22;5283;48.876;8.962;2023-12-14T12:42:53;7.60;99.90
10472;DHT22;5283;48.876;8.962;2023-12-14T12:45:19;7.70;99.90
10472;DHT22;5283;48.876;8.962;2023-12-14T12:47:52;7.70;99.90
10472;DHT22;5283;48.876;8.962;2023-12-14T12:50:19;7.70;99.90
10472;DHT22;5283;48.876;8.962;2023-12-14T12:52:47;7.70;99.90
10472;DHT22;5283;48.876;8.962;2023-12-14T12:55:15;7.70;99.90
10472;DHT22;5283;48.876;8.962;2023-12-14T12:57:42;7.60;99.90
10472;DHT22;5283;48.876;8.962;2023-12-14T13:00:09;7.60;99.90
10472;DHT22;5283;48.876;8.962;2023-12-14T13:02:44;7.60;99.90
10472;DHT22;5283;48.876;8.962;2023-12-14T13:05:12;7.50;99.90
10472;DHT22;5283;48.876;8.962;2023-12-14T13:07:43;7.40;99.90
10472;DHT22;5283;48.876;8.962;2023-12-14T13:10:10;7.30;99.90
10472;DHT22;5283;48.876;8.962;2023-12-14T13:12:38;7.30;99.90
10472;DHT22;5283;48.876;8.962;2023-12-14T13:15:05;7.30;99.90
10472;DHT22;5283;48.876;8.962;2023-12-14T13:17:32;7.40;99.90
10472;DHT22;5283;48.876;8.962;2023-12-14T13:19:58;7.40;99.90
10472;DHT22;5283;48.876;8.962;2023-12-14T13:22:25;7.40;99.90
10472;DHT22;5283;48.876;8.962;2023-12-14T13:24:53;7.40;99.90
10472;DHT22;5283;48.876;8.962;2023-12-14T13:27:20;7.40;99.90
10472;DHT22;5283;48.876;8.962;2023-12-14T13:29:47;7.40;99.90
10472;DHT22;5283;48.876;8.962;2023-12-14T13:32:14;7.40;99.90
10472;DHT22;5283;48.876;8.962;2023-12-14T13:34:41;7.40;99.90
10472;DHT22;5283;48.876;8.962;2023-12-14T13:37:08;7.40;99.90
10472;DHT22;5283;48.876;8.962;2023-12-14T13:39:35;7.30;99.90
10472;DHT22;5283;48.876;8.962;2023-12-14T13:42:05;7.30;99.90
10472;DHT22;5283;48.876;8.962;2023-12-14T13:44:33;7.40;99.90
10472;DHT22;5283;48.876;8.962;2023-12-14T13:47:04;7.30;99.90
10472;DHT22;5283;48.876;8.962;2023-12-14T13:49:31;7.40;99.90
10472;DHT22;5283;48.876;8.962;2023-12-14T13:51:58;7.40;99.90
10472;DHT22;5283;48.876;8.962;2023-12-14T13:54:24;7.40;99.90
10472;DHT22;5283;48.876;8.962;2023-12-14T13:56:51;7.40;99.90
10472;DHT22;5283;48.876;8.962;2023-12-14T13:59:19;7.40;99.90
10472;DHT22;5283;48.876;8.962;2023-12-14T14:01:46;7.30;99.90
10472;DHT22;5283;48.876;8.962;2023-12-14T14:04:17;7.30;99.90
10472;DHT22;5283;48.876;8.962;2023-12-14T14:06:45;7.30;99.90
10472;DHT22;5283;48.876;8.962;2023-12-14T14:09:11;7.30;99.90
10472;DHT22;5283;48.876;8.962;2023-12-14T14:11:38;7.30;99.90
10472;DHT22;5283;48.876;8.962;2023-12-14T14:14:12;7.30;99.90
10472;DHT22;5283;48.876;8.962;2023-12-14T14:16:38;7.30;99.90
10472;DHT22;5283;48.876;8.962;2023-12-14T14:19:05;7.30;99.90
10472;DHT22;5283;48.876;8.962;2023-12-14T14:21:32;7.30;99.90
10472;DHT22;5283;48.876;8.962;2023-12-14T14:23:59;7.30;99.90
10472;DHT22;5283;48.876;8.962;2023-12-14T14:26:26;7.30;99.90
10472;DHT22;5283;48.876;8.962;2023-12-14T14:28:52;7.30;99.90
10472;DHT22;5283;48.876;8.962;2023-12-14T14:31:21;7.30;99.90
10472;DHT22;5283;48.876;8.962;2023-12-14T14:33:48;7.30;99.90
10472;DHT22;5283;48.876;8.962;2023-12-14T14:36:15;7.40;99.90
10472;DHT22;5283;48.876;8.962;2023-12-14T14:38:41;7.30;99.90
10472;DHT22;5283;48.876;8.962;2023-12-14T14:41:09;7.30;99.90
10472;DHT22;5283;48.876;8.962;2023-12-14T14:43:36;7.30;99.90
10472;DHT22;5283;48.876;8.962;2023-12-14T14:46:03;7.30;99.90
10472;DHT22;5283;48.876;8.962;2023-12-14T14:48:30;7.30;99.90
10472;DHT22;5283;48.876;8.962;2023-12-14T14:50:57;7.20;99.90
10472;DHT22;5283;48.876;8.962;2023-12-14T14:53:24;7.20;99.90
10472;DHT22;5283;48.876;8.962;2023-12-14T14:55:50;7.20;99.90
10472;DHT22;5283;48.876;8.962;2023-12-14T14:58:22;7.10;99.90
10472;DHT22;5283;48.876;8.962;2023-12-14T15:00:49;7.10;99.90
10472;DHT22;5283;48.876;8.962;2023-12-14T15:03:15;7.10;99.90
10472;DHT22;5283;48.876;8.962;2023-12-14T15:05:42;7.10;99.90
10472;DHT22;5283;48.876;8.962;2023-12-14T15:08:09;7.10;99.90
10472;DHT22;5283;48.876;8.962;2023-12-14T15:10:36;7.10;99.90
10472;DHT22;5283;48.876;8.962;2023-12-14T15:13:03;7.10;99.90
10472;DHT22;5283;48.876;8.962;2023-12-14T15:15:29;7.10;99.90
10472;DHT22;5283;48.876;8.962;2023-12-14T15:17:56;7.10;99.90
10472;DHT22;5283;48.876;8.962;2023-12-14T15:20:23;7.10;99.90
10472;DHT22;5283;48.876;8.962;2023-12-14T15:22:50;7.10;99.90
10472;DHT22;5283;48.876;8.962;2023-12-14T15:25:17;7.10;99.90
10472;DHT22;5283;48.876;8.962;2023-12-14T15:27:44;7.00;99.90
10472;DHT22;5283;48.876;8.962;2023-12-14T15:30:11;7.00;99.90
10472;DHT22;5283;48.876;8.962;2023-12-14T15:32:38;7.00;99.90
10472;DHT22;5283;48.876;8.962;2023-12-14T15:35:05;7.00;99.90
10472;DHT22;5283;48.876;8.962;2023-12-14T15:37:32;6.90;99.90
10472;DHT22;5283;48.876;8.962;2023-12-14T15:39:58;6.90;99.90
10472;DHT22;5283;48.876;8.962;2023-12-14T15:42:25;6.90;99.90
10472;DHT22;5283;48.876;8.962;2023-12-14T15:44:52;6.90;99.90
10472;DHT22;5283;48.876;8.962;2023-12-14T15:47:19;6.80;99.90
10472;DHT22;5283;48.876;8.962;2023-12-14T15:49:47;6.80;99.90
10472;DHT22;5283;48.876;8.962;2023-12-14T15:52:14;6.70;99.90
10472;DHT22;5283;48.876;8.962;2023-12-14T15:54:40;6.70;99.90
10472;DHT22;5283;48.876;8.962;2023-12-14T15:57:07;6.70;99.90
10472;DHT22;5283;48.876;8.962;2023-12-14T15:59:34;6.60;99.90
10472;DHT22;5283;48.876;8.962;2023-12-14T16:02:00;6.60;99.90
10472;DHT22;5283;48.876;8.962;2023-12-14T16:04:27;6.50;99.90
10472;DHT22;5283;48.876;8.962;2023-12-14T16:06:54;6.50;99.90
10472;DHT22;5283;48.876;8.962;2023-12-14T16:09:21;6.40;99.90
10472;DHT22;5283;48.876;8.962;2023-12-14T16:11:47;6.40;99.90